Allerton, Iowa
Current Conditions -  °F | °C
As of 8:55 PM on Tuesday 25 Nov 2014 (Local Time) from KCNC Reporting Station
Overcast Overcast  
Wind Chill: 19°   Ceiling: 15000
Heat Index: 28°   Visibility: 10mi
Dew Point: 16°   Wind: 10mph
Humidity: 59%   Direction: 150°SSE
Pressure: 30.04"   Gusts: NA
Location:  40.71°N, 93.37°W
Report Text: KCNC 260255Z AUTO 15009KT 10SM BKN150 OVC170 M02/M09 A3004 RMK AO2
Loading
Personal Weather Stations






























Interactive Weather Map New forecast layout! Learn more

10-Day Weather Forecast

Advertisements
Track Severe Weather on mobile